sensor_id;sensor_type;location;lat;lon;timestamp;P1;durP1;ratioP1;P2;durP2;ratioP2
34741;SDS011;20968;42.696;23.360;2022-07-23T00:02:19;31.90;;;15.45;;
34741;SDS011;20968;42.696;23.360;2022-07-23T00:04:44;29.00;;;15.18;;
34741;SDS011;20968;42.696;23.360;2022-07-23T00:07:09;27.70;;;13.82;;
34741;SDS011;20968;42.696;23.360;2022-07-23T00:09:35;20.67;;;10.57;;
34741;SDS011;20968;42.696;23.360;2022-07-23T00:12:00;21.00;;;11.80;;
34741;SDS011;20968;42.696;23.360;2022-07-23T00:14:26;16.90;;;9.07;;
34741;SDS011;20968;42.696;23.360;2022-07-23T00:16:51;17.75;;;9.40;;
34741;SDS011;20968;42.696;23.360;2022-07-23T00:19:16;16.08;;;9.20;;
34741;SDS011;20968;42.696;23.360;2022-07-23T00:21:42;20.00;;;8.40;;
34741;SDS011;20968;42.696;23.360;2022-07-23T00:24:07;18.58;;;8.35;;
34741;SDS011;20968;42.696;23.360;2022-07-23T00:26:33;13.10;;;8.13;;
34741;SDS011;20968;42.696;23.360;2022-07-23T00:28:58;12.30;;;7.57;;
34741;SDS011;20968;42.696;23.360;2022-07-23T00:31:23;15.02;;;7.65;;
34741;SDS011;20968;42.696;23.360;2022-07-23T00:33:49;20.88;;;9.38;;
34741;SDS011;20968;42.696;23.360;2022-07-23T00:36:14;15.05;;;7.47;;
34741;SDS011;20968;42.696;23.360;2022-07-23T00:38:40;13.35;;;7.20;;
34741;SDS011;20968;42.696;23.360;2022-07-23T00:41:05;18.85;;;6.95;;
34741;SDS011;20968;42.696;23.360;2022-07-23T00:43:31;13.15;;;6.53;;
34741;SDS011;20968;42.696;23.360;2022-07-23T00:45:56;9.73;;;6.15;;
34741;SDS011;20968;42.696;23.360;2022-07-23T00:48:22;14.63;;;5.90;;
34741;SDS011;20968;42.696;23.360;2022-07-23T00:50:47;15.35;;;6.97;;
34741;SDS011;20968;42.696;23.360;2022-07-23T00:53:13;17.05;;;6.20;;
34741;SDS011;20968;42.696;23.360;2022-07-23T00:55:39;9.20;;;5.03;;
34741;SDS011;20968;42.696;23.360;2022-07-23T00:58:05;10.52;;;5.28;;
34741;SDS011;20968;42.696;23.360;2022-07-23T01:00:31;9.55;;;5.07;;
34741;SDS011;20968;42.696;23.360;2022-07-23T01:02:56;6.93;;;5.10;;
34741;SDS011;20968;42.696;23.360;2022-07-23T01:05:22;7.47;;;5.30;;
34741;SDS011;20968;42.696;23.360;2022-07-23T01:07:51;6.78;;;5.07;;
34741;SDS011;20968;42.696;23.360;2022-07-23T01:10:17;12.90;;;6.03;;
34741;SDS011;20968;42.696;23.360;2022-07-23T01:13:05;5.75;;;5.05;;
34741;SDS011;20968;42.696;23.360;2022-07-23T01:15:32;10.18;;;5.35;;
34741;SDS011;20968;42.696;23.360;2022-07-23T01:17:58;9.43;;;5.43;;
34741;SDS011;20968;42.696;23.360;2022-07-23T01:20:24;7.47;;;5.32;;
34741;SDS011;20968;42.696;23.360;2022-07-23T01:22:50;7.05;;;4.88;;
34741;SDS011;20968;42.696;23.360;2022-07-23T01:25:15;12.93;;;5.35;;
34741;SDS011;20968;42.696;23.360;2022-07-23T01:27:41;9.65;;;5.43;;
34741;SDS011;20968;42.696;23.360;2022-07-23T01:30:07;9.02;;;4.93;;
34741;SDS011;20968;42.696;23.360;2022-07-23T01:32:33;6.53;;;5.25;;
34741;SDS011;20968;42.696;23.360;2022-07-23T01:34:58;9.02;;;5.60;;
34741;SDS011;20968;42.696;23.360;2022-07-23T01:37:24;12.27;;;5.70;;
34741;SDS011;20968;42.696;23.360;2022-07-23T01:39:49;8.10;;;5.10;;
34741;SDS011;20968;42.696;23.360;2022-07-23T01:42:14;7.30;;;5.00;;
34741;SDS011;20968;42.696;23.360;2022-07-23T01:44:40;6.95;;;4.93;;
34741;SDS011;20968;42.696;23.360;2022-07-23T01:47:05;5.65;;;4.22;;
34741;SDS011;20968;42.696;23.360;2022-07-23T01:49:31;8.80;;;5.72;;
34741;SDS011;20968;42.696;23.360;2022-07-23T01:51:56;10.25;;;4.88;;
34741;SDS011;20968;42.696;23.360;2022-07-23T01:54:25;8.70;;;4.80;;
34741;SDS011;20968;42.696;23.360;2022-07-23T01:56:51;5.45;;;4.53;;
34741;SDS011;20968;42.696;23.360;2022-07-23T01:59:16;7.82;;;5.65;;
34741;SDS011;20968;42.696;23.360;2022-07-23T02:01:42;8.48;;;5.45;;
34741;SDS011;20968;42.696;23.360;2022-07-23T02:04:07;8.77;;;5.28;;
34741;SDS011;20968;42.696;23.360;2022-07-23T02:06:32;11.50;;;5.78;;
34741;SDS011;20968;42.696;23.360;2022-07-23T02:08:58;10.50;;;5.38;;
34741;SDS011;20968;42.696;23.360;2022-07-23T02:11:23;7.28;;;4.60;;
34741;SDS011;20968;42.696;23.360;2022-07-23T02:13:48;7.80;;;4.38;;
34741;SDS011;20968;42.696;23.360;2022-07-23T02:16:14;13.90;;;4.85;;
34741;SDS011;20968;42.696;23.360;2022-07-23T02:18:39;10.95;;;5.13;;
34741;SDS011;20968;42.696;23.360;2022-07-23T02:21:05;6.35;;;4.25;;
34741;SDS011;20968;42.696;23.360;2022-07-23T02:23:30;8.52;;;4.40;;
34741;SDS011;20968;42.696;23.360;2022-07-23T02:25:59;7.38;;;4.60;;
34741;SDS011;20968;42.696;23.360;2022-07-23T02:28:24;9.80;;;4.95;;
34741;SDS011;20968;42.696;23.360;2022-07-23T02:30:50;11.80;;;5.90;;
34741;SDS011;20968;42.696;23.360;2022-07-23T02:33:15;11.57;;;6.53;;
34741;SDS011;20968;42.696;23.360;2022-07-23T02:35:41;12.32;;;7.68;;
34741;SDS011;20968;42.696;23.360;2022-07-23T02:38:06;14.05;;;8.18;;
34741;SDS011;20968;42.696;23.360;2022-07-23T02:40:31;18.75;;;9.30;;
34741;SDS011;20968;42.696;23.360;2022-07-23T02:42:57;15.40;;;8.60;;
34741;SDS011;20968;42.696;23.360;2022-07-23T02:45:22;18.80;;;7.97;;
34741;SDS011;20968;42.696;23.360;2022-07-23T02:47:48;11.75;;;7.65;;
34741;SDS011;20968;42.696;23.360;2022-07-23T02:50:13;16.17;;;9.15;;
34741;SDS011;20968;42.696;23.360;2022-07-23T02:52:38;18.70;;;10.05;;
34741;SDS011;20968;42.696;23.360;2022-07-23T02:55:04;13.77;;;8.25;;
34741;SDS011;20968;42.696;23.360;2022-07-23T02:57:30;14.00;;;7.72;;
34741;SDS011;20968;42.696;23.360;2022-07-23T02:59:56;13.77;;;8.48;;
34741;SDS011;20968;42.696;23.360;2022-07-23T03:02:21;19.48;;;8.07;;
34741;SDS011;20968;42.696;23.360;2022-07-23T03:04:46;25.23;;;7.25;;
34741;SDS011;20968;42.696;23.360;2022-07-23T03:07:12;15.68;;;8.35;;
34741;SDS011;20968;42.696;23.360;2022-07-23T03:09:37;14.95;;;8.27;;
34741;SDS011;20968;42.696;23.360;2022-07-23T03:12:03;18.38;;;7.97;;
34741;SDS011;20968;42.696;23.360;2022-07-23T03:14:28;13.07;;;8.00;;
34741;SDS011;20968;42.696;23.360;2022-07-23T03:16:54;19.25;;;8.23;;
34741;SDS011;20968;42.696;23.360;2022-07-23T03:19:19;18.50;;;7.82;;
34741;SDS011;20968;42.696;23.360;2022-07-23T03:21:45;10.57;;;7.70;;
34741;SDS011;20968;42.696;23.360;2022-07-23T03:24:10;12.20;;;7.95;;
34741;SDS011;20968;42.696;23.360;2022-07-23T03:26:36;13.20;;;7.32;;
34741;SDS011;20968;42.696;23.360;2022-07-23T03:29:02;13.88;;;7.18;;
34741;SDS011;20968;42.696;23.360;2022-07-23T03:31:28;10.05;;;6.75;;
34741;SDS011;20968;42.696;23.360;2022-07-23T03:33:56;12.23;;;7.30;;
34741;SDS011;20968;42.696;23.360;2022-07-23T03:36:21;10.43;;;6.93;;
34741;SDS011;20968;42.696;23.360;2022-07-23T03:38:47;13.60;;;6.32;;
34741;SDS011;20968;42.696;23.360;2022-07-23T03:41:12;17.73;;;7.68;;
34741;SDS011;20968;42.696;23.360;2022-07-23T03:43:38;13.25;;;7.07;;
34741;SDS011;20968;42.696;23.360;2022-07-23T03:46:03;24.73;;;9.00;;
34741;SDS011;20968;42.696;23.360;2022-07-23T03:48:28;17.42;;;7.68;;
34741;SDS011;20968;42.696;23.360;2022-07-23T03:50:54;15.05;;;8.02;;
34741;SDS011;20968;42.696;23.360;2022-07-23T03:53:19;9.52;;;7.18;;
34741;SDS011;20968;42.696;23.360;2022-07-23T03:55:45;8.77;;;7.10;;
34741;SDS011;20968;42.696;23.360;2022-07-23T03:58:10;10.07;;;7.82;;
34741;SDS011;20968;42.696;23.360;2022-07-23T04:00:35;16.23;;;8.15;;
34741;SDS011;20968;42.696;23.360;2022-07-23T04:03:01;20.60;;;7.95;;
34741;SDS011;20968;42.696;23.360;2022-07-23T04:05:26;8.77;;;6.68;;
34741;SDS011;20968;42.696;23.360;2022-07-23T04:07:52;12.20;;;6.90;;
34741;SDS011;20968;42.696;23.360;2022-07-23T04:10:17;11.48;;;6.95;;
34741;SDS011;20968;42.696;23.360;2022-07-23T04:12:42;20.38;;;8.63;;
34741;SDS011;20968;42.696;23.360;2022-07-23T04:15:08;12.57;;;7.75;;
34741;SDS011;20968;42.696;23.360;2022-07-23T04:17:34;17.10;;;7.18;;
34741;SDS011;20968;42.696;23.360;2022-07-23T04:19:59;11.48;;;6.82;;
34741;SDS011;20968;42.696;23.360;2022-07-23T04:22:25;9.30;;;6.07;;
34741;SDS011;20968;42.696;23.360;2022-07-23T04:24:50;15.38;;;7.85;;
34741;SDS011;20968;42.696;23.360;2022-07-23T04:27:15;10.52;;;6.55;;
34741;SDS011;20968;42.696;23.360;2022-07-23T04:29:41;21.85;;;7.80;;
34741;SDS011;20968;42.696;23.360;2022-07-23T04:32:06;13.55;;;7.28;;
34741;SDS011;20968;42.696;23.360;2022-07-23T04:34:32;17.00;;;8.25;;
34741;SDS011;20968;42.696;23.360;2022-07-23T04:36:57;32.58;;;8.88;;
34741;SDS011;20968;42.696;23.360;2022-07-23T04:39:23;19.98;;;7.63;;
34741;SDS011;20968;42.696;23.360;2022-07-23T04:41:48;14.68;;;7.57;;
34741;SDS011;20968;42.696;23.360;2022-07-23T04:44:14;16.98;;;7.85;;
34741;SDS011;20968;42.696;23.360;2022-07-23T04:46:39;17.50;;;8.73;;
34741;SDS011;20968;42.696;23.360;2022-07-23T04:49:04;18.15;;;7.97;;
34741;SDS011;20968;42.696;23.360;2022-07-23T04:51:30;18.98;;;9.07;;
34741;SDS011;20968;42.696;23.360;2022-07-23T04:53:55;21.33;;;9.10;;
34741;SDS011;20968;42.696;23.360;2022-07-23T04:56:21;22.38;;;7.78;;
34741;SDS011;20968;42.696;23.360;2022-07-23T04:58:46;23.55;;;9.88;;
34741;SDS011;20968;42.696;23.360;2022-07-23T05:01:12;15.85;;;8.73;;
34741;SDS011;20968;42.696;23.360;2022-07-23T05:03:38;14.55;;;8.15;;
34741;SDS011;20968;42.696;23.360;2022-07-23T05:06:03;18.17;;;11.07;;
34741;SDS011;20968;42.696;23.360;2022-07-23T05:08:29;17.15;;;8.35;;
34741;SDS011;20968;42.696;23.360;2022-07-23T05:10:54;21.63;;;8.10;;
34741;SDS011;20968;42.696;23.360;2022-07-23T05:13:20;21.70;;;9.40;;
34741;SDS011;20968;42.696;23.360;2022-07-23T05:15:46;17.05;;;8.55;;
34741;SDS011;20968;42.696;23.360;2022-07-23T05:18:12;26.00;;;9.35;;
34741;SDS011;20968;42.696;23.360;2022-07-23T05:20:37;22.15;;;8.60;;
34741;SDS011;20968;42.696;23.360;2022-07-23T05:23:03;22.65;;;8.75;;
34741;SDS011;20968;42.696;23.360;2022-07-23T05:25:29;27.83;;;9.18;;
34741;SDS011;20968;42.696;23.360;2022-07-23T05:27:54;24.40;;;9.15;;
34741;SDS011;20968;42.696;23.360;2022-07-23T05:30:20;27.30;;;9.55;;
34741;SDS011;20968;42.696;23.360;2022-07-23T05:32:45;16.08;;;8.15;;
34741;SDS011;20968;42.696;23.360;2022-07-23T05:35:11;17.90;;;9.10;;
34741;SDS011;20968;42.696;23.360;2022-07-23T05:37:37;13.48;;;8.63;;
34741;SDS011;20968;42.696;23.360;2022-07-23T05:40:06;16.73;;;9.38;;
34741;SDS011;20968;42.696;23.360;2022-07-23T05:42:37;13.48;;;7.78;;
34741;SDS011;20968;42.696;23.360;2022-07-23T05:45:04;11.23;;;7.32;;
34741;SDS011;20968;42.696;23.360;2022-07-23T05:47:40;15.65;;;7.15;;
34741;SDS011;20968;42.696;23.360;2022-07-23T05:50:10;20.35;;;8.32;;
34741;SDS011;20968;42.696;23.360;2022-07-23T05:52:36;20.08;;;8.32;;
34741;SDS011;20968;42.696;23.360;2022-07-23T05:55:02;15.43;;;8.57;;
34741;SDS011;20968;42.696;23.360;2022-07-23T05:57:27;14.80;;;7.50;;
34741;SDS011;20968;42.696;23.360;2022-07-23T05:59:52;14.40;;;7.45;;
34741;SDS011;20968;42.696;23.360;2022-07-23T06:02:18;14.65;;;6.82;;
34741;SDS011;20968;42.696;23.360;2022-07-23T06:04:43;10.88;;;6.75;;
34741;SDS011;20968;42.696;23.360;2022-07-23T06:07:09;11.48;;;7.30;;
34741;SDS011;20968;42.696;23.360;2022-07-23T06:09:34;11.40;;;7.18;;
34741;SDS011;20968;42.696;23.360;2022-07-23T06:11:59;18.20;;;7.18;;
34741;SDS011;20968;42.696;23.360;2022-07-23T06:14:25;11.05;;;6.68;;
34741;SDS011;20968;42.696;23.360;2022-07-23T06:16:50;12.73;;;7.05;;
34741;SDS011;20968;42.696;23.360;2022-07-23T06:19:15;12.57;;;6.30;;
34741;SDS011;20968;42.696;23.360;2022-07-23T06:21:41;16.25;;;6.85;;
34741;SDS011;20968;42.696;23.360;2022-07-23T06:24:06;12.32;;;6.88;;
34741;SDS011;20968;42.696;23.360;2022-07-23T06:26:32;12.50;;;6.63;;
34741;SDS011;20968;42.696;23.360;2022-07-23T06:28:57;13.18;;;6.90;;
34741;SDS011;20968;42.696;23.360;2022-07-23T06:31:22;10.85;;;5.75;;
34741;SDS011;20968;42.696;23.360;2022-07-23T06:33:48;9.25;;;5.97;;
34741;SDS011;20968;42.696;23.360;2022-07-23T06:36:13;16.73;;;7.05;;
34741;SDS011;20968;42.696;23.360;2022-07-23T06:38:39;11.57;;;6.30;;
34741;SDS011;20968;42.696;23.360;2022-07-23T06:41:04;8.48;;;5.80;;
34741;SDS011;20968;42.696;23.360;2022-07-23T06:43:30;9.65;;;5.38;;
34741;SDS011;20968;42.696;23.360;2022-07-23T06:45:56;13.35;;;6.18;;
34741;SDS011;20968;42.696;23.360;2022-07-23T06:48:21;16.90;;;6.57;;
34741;SDS011;20968;42.696;23.360;2022-07-23T06:50:47;13.38;;;7.30;;
34741;SDS011;20968;42.696;23.360;2022-07-23T06:53:13;12.85;;;6.38;;
34741;SDS011;20968;42.696;23.360;2022-07-23T06:55:38;11.65;;;5.45;;
34741;SDS011;20968;42.696;23.360;2022-07-23T06:58:04;10.70;;;5.20;;
34741;SDS011;20968;42.696;23.360;2022-07-23T07:00:30;12.65;;;6.32;;
34741;SDS011;20968;42.696;23.360;2022-07-23T07:02:56;10.93;;;5.97;;
34741;SDS011;20968;42.696;23.360;2022-07-23T07:05:21;17.65;;;6.45;;
34741;SDS011;20968;42.696;23.360;2022-07-23T07:07:48;14.10;;;6.82;;
34741;SDS011;20968;42.696;23.360;2022-07-23T07:10:13;13.27;;;6.68;;
34741;SDS011;20968;42.696;23.360;2022-07-23T07:12:41;11.43;;;6.10;;
34741;SDS011;20968;42.696;23.360;2022-07-23T07:15:06;12.02;;;5.55;;
34741;SDS011;20968;42.696;23.360;2022-07-23T07:17:32;14.25;;;7.22;;
34741;SDS011;20968;42.696;23.360;2022-07-23T07:19:57;9.90;;;6.13;;
34741;SDS011;20968;42.696;23.360;2022-07-23T07:22:23;15.65;;;7.05;;
34741;SDS011;20968;42.696;23.360;2022-07-23T07:24:48;21.55;;;7.10;;
34741;SDS011;20968;42.696;23.360;2022-07-23T07:27:13;13.80;;;6.78;;
34741;SDS011;20968;42.696;23.360;2022-07-23T07:29:39;11.30;;;6.35;;
34741;SDS011;20968;42.696;23.360;2022-07-23T07:32:04;9.38;;;6.72;;
34741;SDS011;20968;42.696;23.360;2022-07-23T07:34:30;16.92;;;6.90;;
34741;SDS011;20968;42.696;23.360;2022-07-23T07:36:56;18.58;;;6.53;;
34741;SDS011;20968;42.696;23.360;2022-07-23T07:39:21;11.85;;;6.35;;
34741;SDS011;20968;42.696;23.360;2022-07-23T07:41:46;15.85;;;6.38;;
34741;SDS011;20968;42.696;23.360;2022-07-23T07:44:12;13.93;;;6.30;;
34741;SDS011;20968;42.696;23.360;2022-07-23T07:46:37;13.75;;;6.72;;
34741;SDS011;20968;42.696;23.360;2022-07-23T07:49:02;14.75;;;6.43;;
34741;SDS011;20968;42.696;23.360;2022-07-23T07:51:28;12.15;;;6.78;;
34741;SDS011;20968;42.696;23.360;2022-07-23T07:53:54;15.18;;;7.18;;
34741;SDS011;20968;42.696;23.360;2022-07-23T07:56:19;15.95;;;7.13;;
34741;SDS011;20968;42.696;23.360;2022-07-23T07:58:44;11.00;;;6.47;;
34741;SDS011;20968;42.696;23.360;2022-07-23T08:01:10;16.38;;;7.68;;
34741;SDS011;20968;42.696;23.360;2022-07-23T08:03:35;14.80;;;8.13;;
34741;SDS011;20968;42.696;23.360;2022-07-23T08:06:00;17.30;;;7.15;;
34741;SDS011;20968;42.696;23.360;2022-07-23T08:08:26;15.18;;;7.07;;
34741;SDS011;20968;42.696;23.360;2022-07-23T08:10:51;14.20;;;6.53;;
34741;SDS011;20968;42.696;23.360;2022-07-23T08:13:17;15.57;;;7.47;;
34741;SDS011;20968;42.696;23.360;2022-07-23T08:15:42;11.25;;;7.03;;
34741;SDS011;20968;42.696;23.360;2022-07-23T08:18:08;13.85;;;7.10;;
34741;SDS011;20968;42.696;23.360;2022-07-23T08:20:35;18.00;;;7.22;;
34741;SDS011;20968;42.696;23.360;2022-07-23T08:23:03;12.63;;;6.38;;
34741;SDS011;20968;42.696;23.360;2022-07-23T08:25:31;19.58;;;6.97;;
34741;SDS011;20968;42.696;23.360;2022-07-23T08:27:59;13.23;;;6.25;;
34741;SDS011;20968;42.696;23.360;2022-07-23T08:30:25;7.80;;;5.57;;
34741;SDS011;20968;42.696;23.360;2022-07-23T08:32:58;11.73;;;5.60;;
34741;SDS011;20968;42.696;23.360;2022-07-23T08:35:31;12.23;;;5.13;;
34741;SDS011;20968;42.696;23.360;2022-07-23T08:37:59;16.58;;;5.57;;
34741;SDS011;20968;42.696;23.360;2022-07-23T08:40:27;13.98;;;6.13;;
34741;SDS011;20968;42.696;23.360;2022-07-23T08:42:54;21.42;;;6.18;;
34741;SDS011;20968;42.696;23.360;2022-07-23T08:45:21;11.30;;;5.78;;
34741;SDS011;20968;42.696;23.360;2022-07-23T08:47:48;13.23;;;5.90;;
34741;SDS011;20968;42.696;23.360;2022-07-23T08:50:19;11.45;;;5.43;;
34741;SDS011;20968;42.696;23.360;2022-07-23T08:52:45;12.02;;;5.10;;
34741;SDS011;20968;42.696;23.360;2022-07-23T08:55:10;16.60;;;6.53;;
34741;SDS011;20968;42.696;23.360;2022-07-23T08:57:36;17.55;;;6.15;;
34741;SDS011;20968;42.696;23.360;2022-07-23T09:00:02;13.25;;;5.93;;
34741;SDS011;20968;42.696;23.360;2022-07-23T09:02:29;14.20;;;5.35;;
34741;SDS011;20968;42.696;23.360;2022-07-23T09:04:54;8.77;;;4.97;;
34741;SDS011;20968;42.696;23.360;2022-07-23T09:07:19;20.42;;;5.63;;
34741;SDS011;20968;42.696;23.360;2022-07-23T09:09:45;11.63;;;5.82;;
34741;SDS011;20968;42.696;23.360;2022-07-23T09:12:11;12.65;;;5.72;;
34741;SDS011;20968;42.696;23.360;2022-07-23T09:17:08;13.15;;;5.57;;
34741;SDS011;20968;42.696;23.360;2022-07-23T09:19:35;9.48;;;5.03;;
34741;SDS011;20968;42.696;23.360;2022-07-23T09:22:15;11.68;;;5.20;;
34741;SDS011;20968;42.696;23.360;2022-07-23T09:27:54;7.07;;;5.05;;
34741;SDS011;20968;42.696;23.360;2022-07-23T09:30:25;31.85;;;5.65;;
34741;SDS011;20968;42.696;23.360;2022-07-23T09:38:16;8.40;;;4.50;;
34741;SDS011;20968;42.696;23.360;2022-07-23T09:40:42;9.52;;;5.32;;
34741;SDS011;20968;42.696;23.360;2022-07-23T09:43:08;15.43;;;5.05;;
34741;SDS011;20968;42.696;23.360;2022-07-23T09:45:34;6.93;;;4.95;;
34741;SDS011;20968;42.696;23.360;2022-07-23T09:48:13;17.58;;;5.15;;
34741;SDS011;20968;42.696;23.360;2022-07-23T09:50:40;11.43;;;5.35;;
34741;SDS011;20968;42.696;23.360;2022-07-23T09:53:07;10.43;;;4.95;;
34741;SDS011;20968;42.696;23.360;2022-07-23T09:55:33;11.20;;;4.93;;
34741;SDS011;20968;42.696;23.360;2022-07-23T09:58:06;14.80;;;5.20;;
34741;SDS011;20968;42.696;23.360;2022-07-23T10:00:36;16.17;;;4.22;;
34741;SDS011;20968;42.696;23.360;2022-07-23T10:03:02;8.93;;;4.93;;
34741;SDS011;20968;42.696;23.360;2022-07-23T10:05:30;12.27;;;4.68;;
34741;SDS011;20968;42.696;23.360;2022-07-23T10:07:55;11.38;;;5.47;;
34741;SDS011;20968;42.696;23.360;2022-07-23T10:10:22;10.45;;;5.22;;
34741;SDS011;20968;42.696;23.360;2022-07-23T10:12:53;8.10;;;4.75;;
34741;SDS011;20968;42.696;23.360;2022-07-23T10:15:31;12.18;;;4.90;;
34741;SDS011;20968;42.696;23.360;2022-07-23T10:17:56;13.45;;;4.88;;
34741;SDS011;20968;42.696;23.360;2022-07-23T10:20:22;10.43;;;4.38;;
34741;SDS011;20968;42.696;23.360;2022-07-23T10:22:51;12.52;;;4.30;;
34741;SDS011;20968;42.696;23.360;2022-07-23T10:25:32;12.30;;;4.55;;
34741;SDS011;20968;42.696;23.360;2022-07-23T10:31:00;10.15;;;4.25;;
34741;SDS011;20968;42.696;23.360;2022-07-23T10:36:08;9.05;;;4.22;;
34741;SDS011;20968;42.696;23.360;2022-07-23T10:38:46;11.75;;;3.88;;
34741;SDS011;20968;42.696;23.360;2022-07-23T10:41:20;13.20;;;3.33;;
34741;SDS011;20968;42.696;23.360;2022-07-23T10:44:16;6.72;;;3.88;;
34741;SDS011;20968;42.696;23.360;2022-07-23T10:46:54;8.13;;;3.53;;
34741;SDS011;20968;42.696;23.360;2022-07-23T10:49:35;8.65;;;4.45;;
34741;SDS011;20968;42.696;23.360;2022-07-23T10:54:42;9.82;;;4.20;;
34741;SDS011;20968;42.696;23.360;2022-07-23T10:57:08;13.07;;;4.15;;
34741;SDS011;20968;42.696;23.360;2022-07-23T11:00:08;11.32;;;4.25;;
34741;SDS011;20968;42.696;23.360;2022-07-23T11:02:33;7.00;;;4.20;;
34741;SDS011;20968;42.696;23.360;2022-07-23T11:05:00;12.77;;;4.00;;
34741;SDS011;20968;42.696;23.360;2022-07-23T11:07:30;17.75;;;4.60;;
34741;SDS011;20968;42.696;23.360;2022-07-23T11:09:56;7.30;;;3.63;;
34741;SDS011;20968;42.696;23.360;2022-07-23T11:17:57;11.23;;;3.95;;
34741;SDS011;20968;42.696;23.360;2022-07-23T11:20:27;8.25;;;3.65;;
34741;SDS011;20968;42.696;23.360;2022-07-23T11:22:56;10.20;;;4.65;;
34741;SDS011;20968;42.696;23.360;2022-07-23T11:27:55;13.50;;;4.82;;
34741;SDS011;20968;42.696;23.360;2022-07-23T11:35:33;13.60;;;3.85;;
34741;SDS011;20968;42.696;23.360;2022-07-23T11:38:33;9.25;;;4.28;;
34741;SDS011;20968;42.696;23.360;2022-07-23T11:40:54;14.40;;;4.60;;
34741;SDS011;20968;42.696;23.360;2022-07-23T11:43:22;13.50;;;4.53;;
34741;SDS011;20968;42.696;23.360;2022-07-23T11:45:48;14.90;;;4.13;;
34741;SDS011;20968;42.696;23.360;2022-07-23T11:48:19;16.30;;;5.20;;
34741;SDS011;20968;42.696;23.360;2022-07-23T11:50:50;15.63;;;3.60;;
34741;SDS011;20968;42.696;23.360;2022-07-23T11:53:29;16.60;;;4.93;;
34741;SDS011;20968;42.696;23.360;2022-07-23T11:56:09;10.25;;;3.58;;
34741;SDS011;20968;42.696;23.360;2022-07-23T11:58:35;14.52;;;4.85;;
34741;SDS011;20968;42.696;23.360;2022-07-23T12:01:01;12.02;;;4.22;;
34741;SDS011;20968;42.696;23.360;2022-07-23T12:03:27;14.00;;;5.13;;
34741;SDS011;20968;42.696;23.360;2022-07-23T12:05:56;13.40;;;4.63;;
34741;SDS011;20968;42.696;23.360;2022-07-23T12:08:22;8.50;;;3.65;;
34741;SDS011;20968;42.696;23.360;2022-07-23T12:10:48;10.82;;;4.15;;
34741;SDS011;20968;42.696;23.360;2022-07-23T12:13:15;15.60;;;4.22;;
34741;SDS011;20968;42.696;23.360;2022-07-23T12:15:44;18.23;;;4.10;;
34741;SDS011;20968;42.696;23.360;2022-07-23T12:18:12;16.17;;;4.18;;
34741;SDS011;20968;42.696;23.360;2022-07-23T12:20:43;15.07;;;4.22;;
34741;SDS011;20968;42.696;23.360;2022-07-23T12:23:14;12.15;;;3.60;;
34741;SDS011;20968;42.696;23.360;2022-07-23T12:25:44;11.27;;;3.97;;
34741;SDS011;20968;42.696;23.360;2022-07-23T12:28:12;13.95;;;3.90;;
34741;SDS011;20968;42.696;23.360;2022-07-23T12:30:39;11.65;;;4.13;;
34741;SDS011;20968;42.696;23.360;2022-07-23T12:33:07;13.98;;;3.97;;
34741;SDS011;20968;42.696;23.360;2022-07-23T12:35:41;16.25;;;5.00;;
34741;SDS011;20968;42.696;23.360;2022-07-23T12:38:13;13.45;;;4.57;;
34741;SDS011;20968;42.696;23.360;2022-07-23T12:41:13;14.35;;;4.65;;
34741;SDS011;20968;42.696;23.360;2022-07-23T12:43:36;11.57;;;3.50;;
34741;SDS011;20968;42.696;23.360;2022-07-23T12:48:31;9.30;;;3.73;;
34741;SDS011;20968;42.696;23.360;2022-07-23T12:53:29;19.25;;;4.50;;
34741;SDS011;20968;42.696;23.360;2022-07-23T12:56:09;11.27;;;4.45;;
34741;SDS011;20968;42.696;23.360;2022-07-23T12:58:40;15.43;;;4.80;;
34741;SDS011;20968;42.696;23.360;2022-07-23T13:01:10;11.00;;;4.13;;
34741;SDS011;20968;42.696;23.360;2022-07-23T13:06:31;11.55;;;4.28;;
34741;SDS011;20968;42.696;23.360;2022-07-23T13:08:59;10.60;;;3.53;;
34741;SDS011;20968;42.696;23.360;2022-07-23T13:11:25;10.82;;;4.28;;
34741;SDS011;20968;42.696;23.360;2022-07-23T13:13:50;12.38;;;4.10;;
34741;SDS011;20968;42.696;23.360;2022-07-23T13:16:16;12.25;;;4.75;;
34741;SDS011;20968;42.696;23.360;2022-07-23T13:18:41;16.42;;;4.38;;
34741;SDS011;20968;42.696;23.360;2022-07-23T13:21:07;20.35;;;4.78;;
34741;SDS011;20968;42.696;23.360;2022-07-23T13:23:33;11.13;;;4.18;;
34741;SDS011;20968;42.696;23.360;2022-07-23T13:25:59;15.10;;;4.38;;
34741;SDS011;20968;42.696;23.360;2022-07-23T13:28:24;9.40;;;4.47;;
34741;SDS011;20968;42.696;23.360;2022-07-23T13:30:50;8.70;;;4.22;;
34741;SDS011;20968;42.696;23.360;2022-07-23T13:33:21;10.57;;;3.67;;
34741;SDS011;20968;42.696;23.360;2022-07-23T13:35:49;12.60;;;3.00;;
34741;SDS011;20968;42.696;23.360;2022-07-23T13:38:16;17.33;;;3.78;;
34741;SDS011;20968;42.696;23.360;2022-07-23T13:40:42;15.90;;;4.50;;
34741;SDS011;20968;42.696;23.360;2022-07-23T13:43:09;11.98;;;3.80;;
34741;SDS011;20968;42.696;23.360;2022-07-23T13:45:36;16.95;;;4.70;;
34741;SDS011;20968;42.696;23.360;2022-07-23T13:48:02;17.25;;;3.78;;
34741;SDS011;20968;42.696;23.360;2022-07-23T13:50:29;13.77;;;4.15;;
34741;SDS011;20968;42.696;23.360;2022-07-23T13:52:54;14.73;;;4.57;;
34741;SDS011;20968;42.696;23.360;2022-07-23T13:55:20;15.00;;;4.22;;
34741;SDS011;20968;42.696;23.360;2022-07-23T13:57:45;13.02;;;3.88;;
34741;SDS011;20968;42.696;23.360;2022-07-23T14:00:11;12.30;;;3.70;;
34741;SDS011;20968;42.696;23.360;2022-07-23T14:02:38;13.52;;;4.60;;
34741;SDS011;20968;42.696;23.360;2022-07-23T14:05:05;12.70;;;3.65;;
34741;SDS011;20968;42.696;23.360;2022-07-23T14:07:32;15.73;;;4.28;;
34741;SDS011;20968;42.696;23.360;2022-07-23T14:09:58;11.13;;;4.05;;
34741;SDS011;20968;42.696;23.360;2022-07-23T14:12:24;10.75;;;4.47;;
34741;SDS011;20968;42.696;23.360;2022-07-23T14:14:50;11.43;;;4.30;;
34741;SDS011;20968;42.696;23.360;2022-07-23T14:17:16;12.45;;;3.92;;
34741;SDS011;20968;42.696;23.360;2022-07-23T14:19:41;12.73;;;3.90;;
34741;SDS011;20968;42.696;23.360;2022-07-23T14:22:07;16.40;;;4.68;;
34741;SDS011;20968;42.696;23.360;2022-07-23T14:24:32;9.50;;;3.97;;
34741;SDS011;20968;42.696;23.360;2022-07-23T14:26:59;10.35;;;3.20;;
34741;SDS011;20968;42.696;23.360;2022-07-23T14:29:25;15.45;;;4.00;;
34741;SDS011;20968;42.696;23.360;2022-07-23T14:31:50;14.52;;;3.92;;
34741;SDS011;20968;42.696;23.360;2022-07-23T14:34:16;10.98;;;4.05;;
34741;SDS011;20968;42.696;23.360;2022-07-23T14:36:42;13.13;;;3.78;;
34741;SDS011;20968;42.696;23.360;2022-07-23T14:39:08;9.98;;;3.88;;
34741;SDS011;20968;42.696;23.360;2022-07-23T14:41:34;12.50;;;4.07;;
34741;SDS011;20968;42.696;23.360;2022-07-23T14:44:00;8.52;;;3.92;;
34741;SDS011;20968;42.696;23.360;2022-07-23T14:46:26;14.65;;;4.07;;
34741;SDS011;20968;42.696;23.360;2022-07-23T14:48:52;9.73;;;3.58;;
34741;SDS011;20968;42.696;23.360;2022-07-23T14:51:17;13.73;;;3.25;;
34741;SDS011;20968;42.696;23.360;2022-07-23T14:53:43;15.52;;;3.95;;
34741;SDS011;20968;42.696;23.360;2022-07-23T14:56:08;12.15;;;4.13;;
34741;SDS011;20968;42.696;23.360;2022-07-23T14:58:34;14.15;;;3.60;;
34741;SDS011;20968;42.696;23.360;2022-07-23T15:00:59;12.80;;;4.07;;
34741;SDS011;20968;42.696;23.360;2022-07-23T15:03:25;13.95;;;4.43;;